createdAt,value
2019-02-02T00:01:21.046Z,3.00
2019-02-02T00:04:12.396Z,2.90
2019-02-02T00:07:03.641Z,3.00
2019-02-02T00:09:54.927Z,2.90
2019-02-02T00:13:03.987Z,2.90
2019-02-02T00:19:06.979Z,3.00
2019-02-02T00:21:48.763Z,2.90
2019-02-02T00:24:30.535Z,2.90
2019-02-02T00:27:13.185Z,3.00
2019-02-02T00:29:55.911Z,2.90
2019-02-02T00:32:38.006Z,2.90
2019-02-02T00:35:20.346Z,3.00
2019-02-02T00:38:02.157Z,3.00
2019-02-02T00:40:44.949Z,3.00
2019-02-02T00:43:27.690Z,3.00
2019-02-02T00:46:09.878Z,3.00
2019-02-02T00:48:51.932Z,3.00
2019-02-02T00:51:34.303Z,3.00
2019-02-02T00:54:16.829Z,3.00
2019-02-02T00:56:59.042Z,3.00
2019-02-02T00:59:41.229Z,3.10
2019-02-02T01:02:23.614Z,3.10
2019-02-02T01:05:06.384Z,3.10
2019-02-02T01:07:49.108Z,3.10
2019-02-02T01:10:31.531Z,3.10
2019-02-02T01:13:13.903Z,3.10
2019-02-02T01:15:56.365Z,3.10
2019-02-02T01:18:38.058Z,3.10
2019-02-02T01:21:20.462Z,3.10
2019-02-02T01:24:02.974Z,3.10
2019-02-02T01:26:44.935Z,3.10
2019-02-02T01:29:26.845Z,3.10
2019-02-02T01:32:09.362Z,3.10
2019-02-02T01:34:51.224Z,3.10
2019-02-02T01:37:32.988Z,3.10
2019-02-02T01:40:15.263Z,3.10
2019-02-02T01:42:57.064Z,3.10
2019-02-02T01:45:39.349Z,3.10
2019-02-02T01:48:21.830Z,3.10
2019-02-02T01:51:04.490Z,3.10
2019-02-02T01:53:47.128Z,3.10
2019-02-02T01:56:29.292Z,3.10
2019-02-02T01:59:11.741Z,3.10
2019-02-02T02:01:54.494Z,3.10
2019-02-02T02:04:36.554Z,3.10
2019-02-02T02:07:18.594Z,3.10
2019-02-02T02:10:01.005Z,3.10
2019-02-02T02:12:43.173Z,3.10
2019-02-02T02:15:25.666Z,3.10
2019-02-02T02:18:08.011Z,3.10
2019-02-02T02:20:50.169Z,3.10
2019-02-02T02:23:32.541Z,3.10
2019-02-02T02:26:14.808Z,3.10
2019-02-02T02:28:57.182Z,3.10
2019-02-02T02:31:39.224Z,3.10
2019-02-02T02:34:21.720Z,3.10
2019-02-02T02:37:04.034Z,3.10
2019-02-02T02:39:46.274Z,3.10
2019-02-02T02:42:28.332Z,3.10
2019-02-02T02:45:10.279Z,3.10
2019-02-02T02:47:52.471Z,3.10
2019-02-02T02:50:34.408Z,3.10
2019-02-02T02:53:16.336Z,3.10
2019-02-02T02:55:58.671Z,3.20
2019-02-02T02:58:41.912Z,3.10
2019-02-02T03:01:24.639Z,3.10
2019-02-02T03:04:06.449Z,3.10
2019-02-02T03:06:48.814Z,3.10
2019-02-02T03:09:31.181Z,3.10
2019-02-02T03:12:13.109Z,3.10
2019-02-02T03:14:55.368Z,3.10
2019-02-02T03:17:37.235Z,3.20
2019-02-02T03:20:19.302Z,3.20
2019-02-02T03:23:01.704Z,3.10
2019-02-02T03:25:44.537Z,3.20
2019-02-02T03:28:26.385Z,3.10
2019-02-02T03:31:08.757Z,3.10
2019-02-02T03:33:50.737Z,3.10
2019-02-02T03:36:33.060Z,3.10
2019-02-02T03:39:15.248Z,3.10
2019-02-02T03:41:57.864Z,3.10
2019-02-02T03:44:40.159Z,3.10
2019-02-02T03:47:22.303Z,3.10
2019-02-02T03:50:04.770Z,3.10
2019-02-02T03:52:47.200Z,3.10
2019-02-02T03:55:29.689Z,3.10
2019-02-02T03:58:12.919Z,3.10
2019-02-02T04:00:54.799Z,3.10
2019-02-02T04:03:37.134Z,3.10
2019-02-02T04:06:19.433Z,3.10
2019-02-02T04:09:02.069Z,3.10
2019-02-02T04:11:44.827Z,3.10
2019-02-02T04:14:26.695Z,3.10
2019-02-02T04:17:09.091Z,3.10
2019-02-02T04:19:51.516Z,3.10
2019-02-02T04:22:35.680Z,3.10
2019-02-02T04:25:17.786Z,3.00
2019-02-02T04:27:59.630Z,3.00
2019-02-02T04:30:42.334Z,3.00
2019-02-02T04:33:24.946Z,3.10
2019-02-02T04:36:06.816Z,3.10
2019-02-02T04:38:48.851Z,3.10
2019-02-02T04:41:31.272Z,3.00
2019-02-02T04:44:13.164Z,3.00
2019-02-02T04:46:55.345Z,3.00
2019-02-02T04:49:37.645Z,3.00
2019-02-02T04:52:19.821Z,3.00
2019-02-02T04:55:01.726Z,3.00
2019-02-02T04:57:43.955Z,3.10
2019-02-02T05:00:26.243Z,3.10
2019-02-02T05:03:08.427Z,3.10
2019-02-02T05:05:50.571Z,3.10
2019-02-02T05:08:32.758Z,3.10
2019-02-02T05:11:15.368Z,3.10
2019-02-02T05:13:57.132Z,3.10
2019-02-02T05:16:39.255Z,3.10
2019-02-02T05:19:21.754Z,3.10
2019-02-02T05:22:04.335Z,3.10
2019-02-02T05:24:46.443Z,3.10
2019-02-02T05:27:28.503Z,3.10
2019-02-02T05:30:11.006Z,3.10
2019-02-02T05:32:53.839Z,3.10
2019-02-02T05:35:36.601Z,3.10
2019-02-02T05:38:18.471Z,3.10
2019-02-02T05:41:00.382Z,3.10
2019-02-02T05:43:43.219Z,3.20
2019-02-02T05:46:25.403Z,3.20
2019-02-02T05:49:07.732Z,3.20
2019-02-02T05:51:49.843Z,3.10
2019-02-02T05:54:31.662Z,3.20
2019-02-02T05:57:13.702Z,3.20
2019-02-02T05:59:55.887Z,3.10
2019-02-02T06:02:38.466Z,3.10
2019-02-02T06:05:20.862Z,3.20
2019-02-02T06:08:04.086Z,3.20
2019-02-02T06:10:46.033Z,3.20
2019-02-02T06:13:27.991Z,3.20
2019-02-02T06:16:10.225Z,3.20
2019-02-02T06:18:52.346Z,3.20
2019-02-02T06:21:34.326Z,3.20
2019-02-02T06:24:16.140Z,3.10
2019-02-02T06:26:58.463Z,3.10
2019-02-02T06:29:41.054Z,3.10
2019-02-02T06:32:22.897Z,3.10
2019-02-02T06:35:05.165Z,3.10
2019-02-02T06:37:47.788Z,3.20
2019-02-02T06:40:29.733Z,3.20
2019-02-02T06:43:12.625Z,3.20
2019-02-02T06:45:55.074Z,3.10
2019-02-02T06:48:37.450Z,3.10
2019-02-02T06:51:19.285Z,3.00
2019-02-02T06:54:01.899Z,3.00
2019-02-02T06:56:44.186Z,3.00
2019-02-02T06:59:26.743Z,3.00
2019-02-02T07:02:09.403Z,3.10
2019-02-02T07:04:51.377Z,3.10
2019-02-02T07:07:33.625Z,3.10
2019-02-02T07:10:16.108Z,3.10
2019-02-02T07:12:58.925Z,3.10
2019-02-02T07:15:41.535Z,3.10
2019-02-02T07:18:24.075Z,3.10
2019-02-02T07:21:06.952Z,3.10
2019-02-02T07:23:48.868Z,3.10
2019-02-02T07:26:31.566Z,3.10
2019-02-02T07:29:14.055Z,3.20
2019-02-02T07:31:56.409Z,3.20
2019-02-02T07:34:38.861Z,3.20
2019-02-02T07:37:20.642Z,3.20
2019-02-02T07:40:02.815Z,3.20
2019-02-02T07:42:44.805Z,3.20
2019-02-02T07:45:26.814Z,3.20
2019-02-02T07:48:09.697Z,3.20
2019-02-02T07:50:51.985Z,3.20
2019-02-02T07:53:34.025Z,3.10
2019-02-02T07:56:16.000Z,3.20
2019-02-02T07:58:58.107Z,3.10
2019-02-02T08:01:40.475Z,3.10
2019-02-02T08:04:22.949Z,3.20
2019-02-02T08:07:05.247Z,3.20
2019-02-02T08:09:47.316Z,3.20
2019-02-02T08:12:29.985Z,3.10
2019-02-02T08:15:12.510Z,3.10
2019-02-02T08:17:54.911Z,3.10
2019-02-02T08:20:38.509Z,3.20
2019-02-02T08:23:20.636Z,3.20
2019-02-02T08:26:03.273Z,3.20
2019-02-02T08:28:45.911Z,3.30
2019-02-02T08:31:28.573Z,3.30
2019-02-02T08:34:10.871Z,3.30
2019-02-02T08:36:52.957Z,3.30
2019-02-02T08:39:35.588Z,3.30
2019-02-02T08:42:17.731Z,3.30
2019-02-02T08:45:00.406Z,3.30
2019-02-02T08:47:42.290Z,3.30
2019-02-02T08:50:24.557Z,3.30
2019-02-02T08:53:07.008Z,3.40
2019-02-02T08:55:51.940Z,3.40
2019-02-02T08:58:34.310Z,3.40
2019-02-02T09:01:16.851Z,3.40
2019-02-02T09:04:00.240Z,3.40
2019-02-02T09:06:42.235Z,3.40
2019-02-02T09:09:24.548Z,3.50
2019-02-02T09:12:06.607Z,3.50
2019-02-02T09:14:48.721Z,3.60
2019-02-02T09:17:31.159Z,3.60
2019-02-02T09:20:13.342Z,3.60
2019-02-02T09:23:04.098Z,3.60
2019-02-02T09:25:39.971Z,3.70
2019-02-02T09:28:22.235Z,3.60
2019-02-02T09:31:15.251Z,3.60
2019-02-02T09:33:48.655Z,3.60
2019-02-02T09:36:30.855Z,3.60
2019-02-02T09:39:12.831Z,3.70
2019-02-02T09:41:55.005Z,3.70
2019-02-02T09:44:37.110Z,3.70
2019-02-02T09:47:20.212Z,3.70
2019-02-02T09:50:02.383Z,3.70
2019-02-02T09:52:44.199Z,3.70
2019-02-02T09:55:26.517Z,3.70
2019-02-02T09:58:09.073Z,3.60
2019-02-02T10:00:51.050Z,3.60
2019-02-02T10:03:33.079Z,3.70
2019-02-02T10:06:15.547Z,3.60
2019-02-02T10:08:58.271Z,3.60
2019-02-02T10:11:40.761Z,3.70
2019-02-02T10:14:23.006Z,3.70
2019-02-02T10:17:04.818Z,3.70
2019-02-02T10:19:47.422Z,3.80
2019-02-02T10:22:29.295Z,3.80
2019-02-02T10:25:11.505Z,3.80
2019-02-02T10:27:54.210Z,3.80
2019-02-02T10:30:36.705Z,3.80
2019-02-02T10:33:18.496Z,3.90
2019-02-02T10:36:01.329Z,3.90
2019-02-02T10:38:43.507Z,4.00
2019-02-02T10:41:25.982Z,4.00
2019-02-02T10:44:08.291Z,4.00
2019-02-02T10:46:50.839Z,4.00
2019-02-02T10:49:33.078Z,4.00
2019-02-02T10:52:15.396Z,4.10
2019-02-02T10:54:57.260Z,4.10
2019-02-02T10:57:39.610Z,4.20
2019-02-02T11:00:22.073Z,4.20
2019-02-02T11:03:04.780Z,4.30
2019-02-02T11:05:47.427Z,4.30
2019-02-02T11:08:29.386Z,4.30
2019-02-02T11:11:11.676Z,4.30
2019-02-02T11:13:53.835Z,4.30
2019-02-02T11:16:35.747Z,4.30
2019-02-02T11:19:17.778Z,4.40
2019-02-02T11:22:01.742Z,4.40
2019-02-02T11:24:43.718Z,4.40
2019-02-02T11:27:25.612Z,4.50
2019-02-02T11:30:07.536Z,4.50
2019-02-02T11:32:50.466Z,4.50
2019-02-02T11:35:33.103Z,4.50
2019-02-02T11:38:15.451Z,4.50
2019-02-02T11:40:57.942Z,4.50
2019-02-02T11:43:39.881Z,4.60
2019-02-02T11:46:22.165Z,4.60
2019-02-02T11:49:04.839Z,4.60
2019-02-02T11:51:47.124Z,4.60
2019-02-02T11:54:29.805Z,4.60
2019-02-02T11:57:12.346Z,4.60
2019-02-02T11:59:54.348Z,4.70
2019-02-02T12:02:36.715Z,4.70
2019-02-02T12:05:19.293Z,4.70
2019-02-02T12:08:01.263Z,4.70
2019-02-02T12:10:43.441Z,4.70
2019-02-02T12:13:25.999Z,4.80
2019-02-02T12:16:08.398Z,4.80
2019-02-02T12:18:50.532Z,4.80
2019-02-02T12:21:32.603Z,4.80
2019-02-02T12:24:16.329Z,4.90
2019-02-02T12:27:01.735Z,4.90
2019-02-02T12:29:44.281Z,5.00
2019-02-02T12:32:27.078Z,5.00
2019-02-02T12:35:10.003Z,5.10
2019-02-02T12:37:52.397Z,5.10
2019-02-02T12:40:34.748Z,5.10
2019-02-02T12:43:16.645Z,5.10
2019-02-02T12:45:58.594Z,5.20
2019-02-02T12:48:40.631Z,5.10
2019-02-02T12:51:22.678Z,5.20
2019-02-02T12:54:04.537Z,5.20
2019-02-02T12:56:46.481Z,5.20
2019-02-02T12:59:29.085Z,5.20
2019-02-02T13:02:11.650Z,5.20
2019-02-02T13:04:53.899Z,5.20
2019-02-02T13:07:35.883Z,5.20
2019-02-02T13:10:18.198Z,5.20
2019-02-02T13:13:01.228Z,5.20
2019-02-02T13:15:43.824Z,5.20
2019-02-02T13:18:25.963Z,5.20
2019-02-02T13:21:08.562Z,5.20
2019-02-02T13:23:50.502Z,5.20
2019-02-02T13:26:33.218Z,5.20
2019-02-02T13:29:15.473Z,5.20
2019-02-02T13:31:57.709Z,5.20
2019-02-02T13:34:40.092Z,5.20
2019-02-02T13:37:22.642Z,5.20
2019-02-02T13:40:05.217Z,5.20
2019-02-02T13:42:47.392Z,5.20
2019-02-02T13:45:29.846Z,5.20
2019-02-02T13:48:12.424Z,5.20
2019-02-02T13:50:54.428Z,5.20
2019-02-02T13:53:37.020Z,5.20
2019-02-02T13:56:19.620Z,5.20
2019-02-02T13:59:01.536Z,5.30
2019-02-02T14:01:43.838Z,5.20
2019-02-02T14:04:25.825Z,5.20
2019-02-02T14:07:17.881Z,5.30
2019-02-02T14:09:52.393Z,5.30
2019-02-02T14:12:34.411Z,5.30
2019-02-02T14:15:16.835Z,5.20
2019-02-02T14:17:58.960Z,5.20
2019-02-02T14:20:41.489Z,5.20
2019-02-02T14:23:24.161Z,5.20
2019-02-02T14:26:07.085Z,5.20
2019-02-02T14:28:49.806Z,5.20
2019-02-02T14:31:32.044Z,5.20
2019-02-02T14:34:14.425Z,5.20
2019-02-02T14:36:57.162Z,5.20
2019-02-02T14:39:38.961Z,5.20
2019-02-02T14:42:21.418Z,5.20
2019-02-02T14:45:03.451Z,5.20
2019-02-02T14:47:46.487Z,5.30
2019-02-02T14:50:31.978Z,5.30
2019-02-02T14:53:13.155Z,5.20
2019-02-02T14:55:55.604Z,5.20
2019-02-02T14:58:37.526Z,5.30
2019-02-02T15:01:19.521Z,5.30
2019-02-02T15:04:01.518Z,5.30
2019-02-02T15:06:43.783Z,5.20
2019-02-02T15:09:26.288Z,5.30
2019-02-02T15:12:07.998Z,5.20
2019-02-02T15:14:50.444Z,5.20
2019-02-02T15:17:32.719Z,5.20
2019-02-02T15:20:15.355Z,5.20
2019-02-02T15:22:57.131Z,5.20
2019-02-02T15:25:39.507Z,5.20
2019-02-02T15:28:22.350Z,5.20
2019-02-02T15:31:04.571Z,5.10
2019-02-02T15:33:46.950Z,5.10
2019-02-02T15:36:29.260Z,5.10
2019-02-02T15:39:11.467Z,5.10
2019-02-02T15:41:55.726Z,5.10
2019-02-02T15:44:38.179Z,5.10
2019-02-02T15:47:20.495Z,5.00
2019-02-02T15:50:04.016Z,5.00
2019-02-02T15:52:46.488Z,4.90
2019-02-02T15:55:28.891Z,4.90
2019-02-02T15:58:11.629Z,4.90
2019-02-02T16:00:53.650Z,4.90
2019-02-02T16:03:36.089Z,4.90
2019-02-02T16:06:18.557Z,4.80
2019-02-02T16:09:01.270Z,4.80
2019-02-02T16:11:43.606Z,4.80
2019-02-02T16:14:25.977Z,4.80
2019-02-02T16:17:08.308Z,4.70
2019-02-02T16:19:50.860Z,4.70
2019-02-02T16:22:33.166Z,4.60
2019-02-02T16:25:15.293Z,4.60
2019-02-02T16:27:57.267Z,4.60
2019-02-02T16:30:39.993Z,4.60
2019-02-02T16:33:22.286Z,4.60
2019-02-02T16:36:04.799Z,4.50
2019-02-02T16:38:47.128Z,4.40
2019-02-02T16:41:28.990Z,4.40
2019-02-02T16:44:11.118Z,4.40
2019-02-02T16:46:52.867Z,4.40
2019-02-02T16:49:34.874Z,4.40
2019-02-02T16:52:17.217Z,4.40
2019-02-02T16:54:59.119Z,4.40
2019-02-02T16:57:41.161Z,4.40
2019-02-02T17:00:23.745Z,4.40
2019-02-02T17:03:06.003Z,4.30
2019-02-02T17:05:47.913Z,4.30
2019-02-02T17:10:58.031Z,4.20
2019-02-02T17:13:47.721Z,4.20
2019-02-02T17:16:37.481Z,4.10
2019-02-02T17:22:35.724Z,4.10
2019-02-02T17:25:18.394Z,4.20
2019-02-02T17:28:00.183Z,4.20
2019-02-02T17:30:43.063Z,4.20
2019-02-02T17:33:26.719Z,4.20
2019-02-02T17:36:08.579Z,4.10
2019-02-02T17:38:50.702Z,4.10
2019-02-02T17:41:32.910Z,4.10
2019-02-02T17:44:15.463Z,4.10
2019-02-02T17:46:56.218Z,4.10
2019-02-02T17:49:45.946Z,4.10
2019-02-02T17:55:51.343Z,4.20
2019-02-02T17:58:41.124Z,4.30
2019-02-02T18:01:45.129Z,4.30
2019-02-02T18:04:43.285Z,4.30
2019-02-02T18:07:52.423Z,4.30
2019-02-02T18:10:42.431Z,4.30
2019-02-02T18:13:32.103Z,4.30
2019-02-02T18:16:22.345Z,4.30
2019-02-02T18:19:31.477Z,4.30
2019-02-02T18:22:13.778Z,4.30
2019-02-02T18:24:56.147Z,4.30
2019-02-02T18:27:38.481Z,4.30
2019-02-02T18:30:20.694Z,4.20
2019-02-02T18:33:02.463Z,4.20
2019-02-02T18:35:44.649Z,4.20
2019-02-02T18:38:26.941Z,4.20
2019-02-02T18:41:09.569Z,4.30
2019-02-02T18:43:51.895Z,4.40
2019-02-02T18:46:34.523Z,4.30
2019-02-02T18:49:16.723Z,4.40
2019-02-02T18:51:59.411Z,4.30
2019-02-02T18:54:41.406Z,4.40
2019-02-02T18:57:23.870Z,4.40
2019-02-02T19:00:07.363Z,4.40
2019-02-02T19:02:49.633Z,4.30
2019-02-02T19:05:31.443Z,4.30
2019-02-02T19:08:13.685Z,4.30
2019-02-02T19:10:56.204Z,4.20
2019-02-02T19:13:38.352Z,4.20
2019-02-02T19:16:20.939Z,4.20
2019-02-02T19:19:03.003Z,4.20
2019-02-02T19:21:45.232Z,4.20
2019-02-02T19:24:27.113Z,4.30
2019-02-02T19:27:09.571Z,4.20
2019-02-02T19:29:51.641Z,4.20
2019-02-02T19:32:33.955Z,4.20
2019-02-02T19:35:16.675Z,4.20
2019-02-02T19:37:58.546Z,4.20
2019-02-02T19:40:41.087Z,4.20
2019-02-02T19:43:21.828Z,4.30
2019-02-02T19:46:14.063Z,4.30
2019-02-02T19:49:03.667Z,4.30
2019-02-02T19:51:55.022Z,4.30
2019-02-02T19:54:44.675Z,4.30
2019-02-02T19:57:53.929Z,4.30
2019-02-02T20:00:43.603Z,4.30
2019-02-02T20:03:33.299Z,4.30
2019-02-02T20:09:31.663Z,4.30
2019-02-02T20:18:31.050Z,4.30
2019-02-02T20:21:14.309Z,4.30
2019-02-02T20:23:56.015Z,4.30
2019-02-02T20:26:38.625Z,4.30
2019-02-02T20:29:20.402Z,4.30
2019-02-02T20:32:02.460Z,4.30
2019-02-02T20:34:45.054Z,4.30
2019-02-02T20:37:27.383Z,4.30
2019-02-02T20:40:09.383Z,4.30
2019-02-02T20:42:51.686Z,4.30
2019-02-02T20:45:33.633Z,4.30
2019-02-02T20:48:16.497Z,4.40
2019-02-02T20:50:58.879Z,4.40
2019-02-02T20:53:41.360Z,4.40
2019-02-02T20:56:23.479Z,4.40
2019-02-02T20:59:06.102Z,4.40
2019-02-02T21:01:48.477Z,4.40
2019-02-02T21:04:30.691Z,4.40
2019-02-02T21:07:12.734Z,4.40
2019-02-02T21:09:54.562Z,4.50
2019-02-02T21:12:37.175Z,4.50
2019-02-02T21:15:19.665Z,4.40
2019-02-02T21:18:01.525Z,4.30
2019-02-02T21:20:43.930Z,4.30
2019-02-02T21:23:26.576Z,4.40
2019-02-02T21:26:08.968Z,4.40
2019-02-02T21:28:51.245Z,4.40
2019-02-02T21:31:33.794Z,4.40
2019-02-02T21:34:16.194Z,4.40
2019-02-02T21:36:58.746Z,4.30
2019-02-02T21:39:41.520Z,4.40
2019-02-02T21:42:24.150Z,4.40
2019-02-02T21:45:06.245Z,4.40
2019-02-02T21:47:48.622Z,4.40
2019-02-02T21:50:31.242Z,4.40
2019-02-02T21:53:13.854Z,4.50
2019-02-02T21:55:56.451Z,4.40
2019-02-02T21:58:38.923Z,4.40
2019-02-02T22:01:24.136Z,4.40
2019-02-02T22:04:05.290Z,4.40
2019-02-02T22:06:47.353Z,4.40
2019-02-02T22:09:29.756Z,4.40
2019-02-02T22:12:12.010Z,4.50
2019-02-02T22:14:54.309Z,4.50
2019-02-02T22:17:37.266Z,4.50
2019-02-02T22:20:19.745Z,4.50
2019-02-02T22:23:02.422Z,4.50
2019-02-02T22:25:44.917Z,4.60
2019-02-02T22:28:27.369Z,4.60
2019-02-02T22:31:09.592Z,4.60
2019-02-02T22:33:51.694Z,4.60
2019-02-02T22:36:33.759Z,4.60
2019-02-02T22:39:16.519Z,4.60
2019-02-02T22:41:59.202Z,4.70
2019-02-02T22:44:41.076Z,4.70
2019-02-02T22:47:23.506Z,4.70
2019-02-02T22:50:05.660Z,4.70
2019-02-02T22:52:48.151Z,4.70
2019-02-02T22:55:30.472Z,4.60
2019-02-02T22:58:13.041Z,4.60
2019-02-02T23:01:03.060Z,4.60
2019-02-02T23:03:45.732Z,4.60
2019-02-02T23:06:38.533Z,4.50
2019-02-02T23:09:11.657Z,4.60
2019-02-02T23:11:54.101Z,4.60
2019-02-02T23:14:36.929Z,4.60
2019-02-02T23:17:18.771Z,4.70
2019-02-02T23:20:00.958Z,4.70
2019-02-02T23:22:43.428Z,4.70
2019-02-02T23:25:25.993Z,4.70
2019-02-02T23:28:08.524Z,4.70
2019-02-02T23:30:50.594Z,4.70
2019-02-02T23:33:33.366Z,4.70
2019-02-02T23:36:15.659Z,4.70
2019-02-02T23:38:58.079Z,4.70
2019-02-02T23:41:40.226Z,4.70
2019-02-02T23:44:22.090Z,4.80
2019-02-02T23:47:04.628Z,4.80
2019-02-02T23:49:46.862Z,4.80
2019-02-02T23:52:29.444Z,4.80
2019-02-02T23:55:11.835Z,4.90
2019-02-02T23:57:54.012Z,4.90
